Time;durP1;ratioP1;P1;durP2;ratioP2;P2;SDS_P1;SDS_P2;PMS_P1;PMS_P2;Temp;Humidity;BMP_temperature;BMP_pressure;BME280_temperature;BME280_humidity;BME280_pressure;Samples;Min_cycle;Max_cycle;Signal;HPM_P1;HPM_P2
2022/12/30 00:00:52;;;;;;;17.37;11.87;;;;;;;;;;5091802;28;20207;-82
2022/12/30 00:03:20;;;;;;;15.50;12.90;;;;;;;;;;5073748;28;20200;-83
2022/12/30 00:05:47;;;;;;;18.13;12.73;;;;;;;;;;5090632;28;20598;-82
2022/12/30 00:10:58;;;;;;;28.57;19.17;;;;;;;;;;5077294;28;20289;-83
2022/12/30 00:35:33;;;;;;;13.70;10.97;;;;;;;;;;5075673;28;20223;-83
2022/12/30 00:38:00;;;;;;;12.87;10.00;;;;;;;;;;5091066;28;20845;-82
2022/12/30 00:40:27;;;;;;;13.27;10.13;;;;;;;;;;5062649;28;20201;-83
2022/12/30 00:43:08;;;;;;;14.93;11.57;;;;;;;;;;5092208;28;20200;-83
2022/12/30 00:45:36;;;;;;;22.60;16.23;;;;;;;;;;5110407;28;20218;-82
2022/12/30 00:56:18;;;;;;;17.10;13.07;;;;;;;;;;5090874;28;20211;-83
2022/12/30 00:58:45;;;;;;;20.40;13.73;;;;;;;;;;5090035;28;20638;-82
2022/12/30 01:01:12;;;;;;;18.23;14.13;;;;;;;;;;5073221;28;20200;-83
2022/12/30 01:03:39;;;;;;;34.30;22.07;;;;;;;;;;5077265;28;20236;-83
2022/12/30 01:06:08;;;;;;;15.77;12.73;;;;;;;;;;5103817;28;20261;-82
2022/12/30 01:08:36;;;;;;;43.80;28.80;;;;;;;;;;5089779;28;20252;-82
2022/12/30 01:11:06;;;;;;;22.07;14.60;;;;;;;;;;5080379;28;20223;-82
2022/12/30 01:13:33;;;;;;;22.20;14.97;;;;;;;;;;5088940;28;20204;-81
2022/12/30 01:16:07;;;;;;;15.70;12.43;;;;;;;;;;5078711;28;20268;-82
2022/12/30 01:18:34;;;;;;;17.00;12.07;;;;;;;;;;5100576;28;20292;-82
2022/12/30 01:21:01;;;;;;;16.13;11.50;;;;;;;;;;5090542;28;20195;-82
2022/12/30 01:23:30;;;;;;;12.90;10.90;;;;;;;;;;5079949;28;20200;-81
2022/12/30 01:26:00;;;;;;;15.50;11.50;;;;;;;;;;5079648;28;20854;-81
2022/12/30 01:28:30;;;;;;;14.37;11.20;;;;;;;;;;5083914;28;20201;-82
2022/12/30 01:30:57;;;;;;;16.73;12.03;;;;;;;;;;5063822;28;20298;-82
2022/12/30 01:33:24;;;;;;;16.87;13.67;;;;;;;;;;5090383;28;20227;-81
2022/12/30 01:35:53;;;;;;;15.27;11.60;;;;;;;;;;5090010;28;20204;-82
2022/12/30 01:38:21;;;;;;;16.70;12.23;;;;;;;;;;5089076;28;20624;-82
2022/12/30 01:40:49;;;;;;;13.43;11.33;;;;;;;;;;5090560;28;20196;-82
2022/12/30 01:43:17;;;;;;;16.67;12.00;;;;;;;;;;5090085;28;20204;-82
2022/12/30 01:45:46;;;;;;;14.83;11.60;;;;;;;;;;5089946;28;20211;-82
2022/12/30 01:48:24;;;;;;;131.20;89.63;;;;;;;;;;5090337;28;20199;-82
2022/12/30 01:50:54;;;;;;;96.67;62.57;;;;;;;;;;5089388;28;20251;-82
2022/12/30 01:53:23;;;;;;;23.27;15.60;;;;;;;;;;5090130;28;20253;-82
2022/12/30 01:55:54;;;;;;;12.97;11.30;;;;;;;;;;5089425;28;20213;-81
2022/12/30 01:58:26;;;;;;;14.07;10.67;;;;;;;;;;5090614;28;20207;-82
2022/12/30 02:00:53;;;;;;;16.47;12.57;;;;;;;;;;5094385;28;20597;-82
2022/12/30 02:03:20;;;;;;;19.50;13.40;;;;;;;;;;5109838;28;20203;-82
2022/12/30 02:05:47;;;;;;;32.40;19.27;;;;;;;;;;5110378;28;20196;-82
2022/12/30 02:08:24;;;;;;;44.33;26.83;;;;;;;;;;5110221;28;20596;-82
2022/12/30 02:10:54;;;;;;;37.57;25.43;;;;;;;;;;5103183;28;20220;-81
2022/12/30 02:13:22;;;;;;;33.10;19.73;;;;;;;;;;5103755;28;20207;-82
2022/12/30 02:16:00;;;;;;;17.53;12.30;;;;;;;;;;5109961;28;20187;-82
2022/12/30 02:18:33;;;;;;;15.63;10.70;;;;;;;;;;5109658;28;20204;-81
2022/12/30 02:21:25;;;;;;;12.33;9.97;;;;;;;;;;5113737;28;20203;-82
2022/12/30 02:24:09;;;;;;;12.63;9.33;;;;;;;;;;5095835;28;20249;-82
2022/12/30 02:27:14;;;;;;;13.03;10.23;;;;;;;;;;5111532;28;20282;-82
2022/12/30 02:30:18;;;;;;;22.37;15.83;;;;;;;;;;5093686;28;20207;-81
2022/12/30 02:33:11;;;;;;;15.77;12.30;;;;;;;;;;5090826;28;20204;-82
2022/12/30 02:35:48;;;;;;;16.00;11.50;;;;;;;;;;5083712;28;20273;-81
2022/12/30 02:38:21;;;;;;;12.47;9.67;;;;;;;;;;5093114;28;20583;-81
2022/12/30 02:46:28;;;;;;;13.30;9.83;;;;;;;;;;5091016;28;20207;-82
2022/12/30 02:48:58;;;;;;;13.23;10.33;;;;;;;;;;5093400;28;20760;-82
2022/12/30 02:54:07;;;;;;;11.63;9.77;;;;;;;;;;5058918;28;20204;-81
2022/12/30 02:56:33;;;;;;;12.30;10.60;;;;;;;;;;5091884;28;20270;-82
2022/12/30 03:04:45;;;;;;;11.70;10.13;;;;;;;;;;5080933;28;20288;-78
2022/12/30 03:07:22;;;;;;;14.93;9.70;;;;;;;;;;5092450;28;21612;-77
2022/12/30 03:12:51;;;;;;;11.77;8.87;;;;;;;;;;5092861;28;20365;-77
2022/12/30 03:15:22;;;;;;;11.47;9.23;;;;;;;;;;5092156;28;20211;-78
2022/12/30 03:17:50;;;;;;;10.40;8.43;;;;;;;;;;5092307;28;20211;-79
2022/12/30 03:20:19;;;;;;;12.27;9.57;;;;;;;;;;5109542;28;20260;-78
2022/12/30 03:28:20;;;;;;;11.27;8.47;;;;;;;;;;5092311;28;20604;-78
2022/12/30 03:30:50;;;;;;;12.33;9.47;;;;;;;;;;5091154;28;20261;-82
2022/12/30 03:33:18;;;;;;;10.70;8.60;;;;;;;;;;5091461;28;20632;-79
2022/12/30 03:35:50;;;;;;;13.57;9.77;;;;;;;;;;5096869;28;20211;-79
2022/12/30 03:38:20;;;;;;;10.57;9.10;;;;;;;;;;5112570;28;20203;-79
2022/12/30 03:40:47;;;;;;;11.17;8.80;;;;;;;;;;5111833;28;20199;-79
2022/12/30 03:43:15;;;;;;;10.33;9.03;;;;;;;;;;5107594;28;20203;-78
2022/12/30 03:45:41;;;;;;;11.97;9.03;;;;;;;;;;5091473;28;20246;-79
2022/12/30 03:48:08;;;;;;;12.40;9.67;;;;;;;;;;5091552;28;20208;-78
2022/12/30 03:50:35;;;;;;;12.70;10.37;;;;;;;;;;5091382;28;20200;-79
2022/12/30 03:53:03;;;;;;;12.63;9.40;;;;;;;;;;5091721;28;20216;-79
2022/12/30 03:55:30;;;;;;;12.70;9.27;;;;;;;;;;5091206;28;20200;-79
2022/12/30 03:57:57;;;;;;;46.00;34.13;;;;;;;;;;5091343;28;20200;-79
2022/12/30 04:00:23;;;;;;;28.10;20.73;;;;;;;;;;5091147;28;20200;-79
2022/12/30 04:02:50;;;;;;;35.90;21.60;;;;;;;;;;5091720;28;20203;-82
2022/12/30 04:05:17;;;;;;;115.23;67.23;;;;;;;;;;5091131;28;20281;-79
2022/12/30 04:07:44;;;;;;;65.37;40.07;;;;;;;;;;5091536;28;20325;-80
2022/12/30 04:10:12;;;;;;;34.60;27.93;;;;;;;;;;5091596;28;20750;-79
2022/12/30 04:12:39;;;;;;;14.90;12.87;;;;;;;;;;5111708;28;20244;-79
2022/12/30 04:15:07;;;;;;;12.37;9.83;;;;;;;;;;5111698;28;20203;-79
2022/12/30 04:17:34;;;;;;;10.43;8.97;;;;;;;;;;5111967;28;20199;-79
2022/12/30 04:20:00;;;;;;;10.83;9.27;;;;;;;;;;5111600;28;20195;-79
2022/12/30 04:22:28;;;;;;;24.60;19.03;;;;;;;;;;5111619;28;20199;-79
2022/12/30 04:24:55;;;;;;;15.00;11.00;;;;;;;;;;5083023;28;20300;-80
2022/12/30 04:27:23;;;;;;;9.73;8.70;;;;;;;;;;5111753;28;20634;-81
2022/12/30 04:29:49;;;;;;;14.77;11.00;;;;;;;;;;5111199;28;20209;-79
2022/12/30 04:32:16;;;;;;;21.33;14.67;;;;;;;;;;5111736;28;20249;-79
2022/12/30 04:34:43;;;;;;;21.83;14.93;;;;;;;;;;5110605;28;20200;-79
2022/12/30 04:37:10;;;;;;;19.73;14.30;;;;;;;;;;5111114;28;20730;-79
2022/12/30 04:39:36;;;;;;;12.97;10.47;;;;;;;;;;5107613;28;20197;-79
2022/12/30 04:42:03;;;;;;;14.00;8.57;;;;;;;;;;5101179;28;20566;-81
2022/12/30 04:44:31;;;;;;;17.50;13.37;;;;;;;;;;5109868;28;20195;-79
2022/12/30 04:46:59;;;;;;;71.23;46.17;;;;;;;;;;5100754;28;20208;-79
2022/12/30 04:49:25;;;;;;;20.33;15.37;;;;;;;;;;5090703;28;20197;-79
2022/12/30 04:51:52;;;;;;;13.10;9.70;;;;;;;;;;5090705;28;20908;-81
2022/12/30 04:54:19;;;;;;;14.30;9.20;;;;;;;;;;5090315;28;20218;-79
2022/12/30 04:56:45;;;;;;;13.67;10.77;;;;;;;;;;5090791;28;20261;-79
2022/12/30 04:59:12;;;;;;;16.60;11.63;;;;;;;;;;5090535;28;20498;-79
2022/12/30 05:01:40;;;;;;;10.57;9.47;;;;;;;;;;5090153;28;20592;-80
2022/12/30 05:04:07;;;;;;;11.27;8.20;;;;;;;;;;5090493;28;20224;-79
2022/12/30 05:06:34;;;;;;;13.10;9.93;;;;;;;;;;5090338;28;20291;-80
2022/12/30 05:09:00;;;;;;;10.80;8.60;;;;;;;;;;5090119;28;20208;-79
2022/12/30 05:11:27;;;;;;;10.37;8.37;;;;;;;;;;5090721;28;20243;-79
2022/12/30 05:13:54;;;;;;;12.07;9.07;;;;;;;;;;5090174;28;20200;-79
2022/12/30 05:16:21;;;;;;;14.33;9.73;;;;;;;;;;5090329;28;20261;-78
2022/12/30 05:18:49;;;;;;;13.87;9.03;;;;;;;;;;5090372;28;20200;-79
2022/12/30 05:21:15;;;;;;;11.57;8.53;;;;;;;;;;5090060;28;20200;-79
2022/12/30 05:26:27;;;;;;;19.00;14.10;;;;;;;;;;5089752;28;20285;-78
2022/12/30 05:28:54;;;;;;;31.47;18.93;;;;;;;;;;5090547;28;20196;-78
2022/12/30 05:31:20;;;;;;;146.37;93.37;;;;;;;;;;5090341;28;20273;-78
2022/12/30 05:33:49;;;;;;;67.73;44.63;;;;;;;;;;5095988;28;20210;-78
2022/12/30 05:36:16;;;;;;;52.43;32.27;;;;;;;;;;5100533;28;20207;-81
2022/12/30 05:38:42;;;;;;;40.87;26.63;;;;;;;;;;5090665;28;20679;-80
2022/12/30 05:41:10;;;;;;;51.47;29.77;;;;;;;;;;5091320;28;20197;-80
2022/12/30 05:43:37;;;;;;;43.63;27.27;;;;;;;;;;5110112;28;20739;-79
2022/12/30 05:46:04;;;;;;;143.63;84.17;;;;;;;;;;5105832;28;20670;-80
2022/12/30 05:48:31;;;;;;;42.20;24.13;;;;;;;;;;5110335;28;20206;-80
2022/12/30 05:50:59;;;;;;;17.53;13.17;;;;;;;;;;5093378;28;20208;-80
2022/12/30 05:53:26;;;;;;;15.73;11.63;;;;;;;;;;5089930;28;20577;-79
2022/12/30 05:55:53;;;;;;;13.73;10.27;;;;;;;;;;5093831;28;20204;-80
2022/12/30 05:58:20;;;;;;;12.93;9.30;;;;;;;;;;5094371;28;20280;-79
2022/12/30 06:00:47;;;;;;;10.90;8.60;;;;;;;;;;5093414;28;20200;-80
2022/12/30 06:03:14;;;;;;;12.47;10.83;;;;;;;;;;5094054;28;20571;-80
2022/12/30 06:05:41;;;;;;;10.17;8.87;;;;;;;;;;5093622;28;20197;-80
2022/12/30 06:08:09;;;;;;;12.87;9.37;;;;;;;;;;5093963;28;20582;-80
2022/12/30 06:10:36;;;;;;;11.17;9.27;;;;;;;;;;5093619;28;20200;-79
2022/12/30 06:13:03;;;;;;;9.77;8.33;;;;;;;;;;5093642;28;20231;-79
2022/12/30 06:15:30;;;;;;;11.13;9.23;;;;;;;;;;5093207;28;20207;-79
2022/12/30 06:17:57;;;;;;;18.13;14.77;;;;;;;;;;5104064;28;20342;-80
2022/12/30 06:20:24;;;;;;;42.00;30.87;;;;;;;;;;5092110;28;20223;-80
2022/12/30 06:22:51;;;;;;;27.73;21.63;;;;;;;;;;5108343;28;20249;-79
2022/12/30 06:25:19;;;;;;;36.93;28.17;;;;;;;;;;5108310;28;20203;-80
2022/12/30 06:27:46;;;;;;;33.87;25.10;;;;;;;;;;5112765;28;20200;-79
2022/12/30 06:30:13;;;;;;;20.10;15.50;;;;;;;;;;5097927;28;20633;-81
2022/12/30 06:32:43;;;;;;;12.27;10.10;;;;;;;;;;5106416;28;20721;-81
2022/12/30 06:35:11;;;;;;;15.60;11.03;;;;;;;;;;5093501;28;20204;-80
2022/12/30 06:37:38;;;;;;;15.00;10.93;;;;;;;;;;5091113;28;20211;-80
2022/12/30 06:40:06;;;;;;;15.27;12.77;;;;;;;;;;5091420;28;20675;-79
2022/12/30 06:42:34;;;;;;;14.00;10.93;;;;;;;;;;5098861;28;20249;-82
2022/12/30 06:45:01;;;;;;;15.23;12.57;;;;;;;;;;5112946;28;20207;-81
2022/12/30 06:47:27;;;;;;;15.97;12.53;;;;;;;;;;5109123;28;20218;-80
2022/12/30 06:49:54;;;;;;;15.30;12.47;;;;;;;;;;5111493;28;20264;-80
2022/12/30 06:52:21;;;;;;;14.83;12.07;;;;;;;;;;5105457;28;20211;-80
2022/12/30 06:54:48;;;;;;;20.20;16.43;;;;;;;;;;5113007;28;20200;-82
2022/12/30 06:57:14;;;;;;;20.37;15.43;;;;;;;;;;5098932;28;20675;-81
2022/12/30 06:59:43;;;;;;;21.03;17.07;;;;;;;;;;5098326;28;20195;-81
2022/12/30 07:02:10;;;;;;;29.67;21.90;;;;;;;;;;5108018;28;20203;-80
2022/12/30 07:04:37;;;;;;;38.80;29.87;;;;;;;;;;5112934;28;20223;-81
2022/12/30 07:07:04;;;;;;;33.77;25.40;;;;;;;;;;5082738;28;20702;-81
2022/12/30 07:09:32;;;;;;;26.37;19.63;;;;;;;;;;5092686;28;20226;-81
2022/12/30 07:12:00;;;;;;;27.03;19.23;;;;;;;;;;5086860;28;20205;-80
2022/12/30 07:14:27;;;;;;;134.63;63.30;;;;;;;;;;5085501;28;20732;-81
2022/12/30 07:16:55;;;;;;;70.27;33.97;;;;;;;;;;5090502;28;20201;-80
2022/12/30 07:19:22;;;;;;;17.87;12.83;;;;;;;;;;5106224;28;20218;-81
2022/12/30 07:21:49;;;;;;;12.27;10.47;;;;;;;;;;5111944;28;20274;-81
2022/12/30 07:24:16;;;;;;;17.17;12.60;;;;;;;;;;5089078;28;20201;-81
2022/12/30 07:26:43;;;;;;;22.80;14.33;;;;;;;;;;5089795;28;20204;-80
2022/12/30 07:29:10;;;;;;;21.30;17.87;;;;;;;;;;5089311;28;20204;-82
2022/12/30 07:31:37;;;;;;;16.50;13.60;;;;;;;;;;5088877;28;20192;-80
2022/12/30 07:34:05;;;;;;;15.07;11.23;;;;;;;;;;5091946;28;20224;-80
2022/12/30 07:36:32;;;;;;;14.27;10.97;;;;;;;;;;5093674;28;20291;-80
2022/12/30 07:38:59;;;;;;;14.23;11.53;;;;;;;;;;5094252;28;20266;-79
2022/12/30 07:41:26;;;;;;;16.57;11.93;;;;;;;;;;5105321;28;20208;-80
2022/12/30 07:43:53;;;;;;;15.67;10.80;;;;;;;;;;5087350;28;20211;-80
2022/12/30 07:46:20;;;;;;;14.30;11.10;;;;;;;;;;5087189;28;20209;-79
2022/12/30 07:48:47;;;;;;;12.50;10.00;;;;;;;;;;5090009;28;20196;-80
2022/12/30 07:51:16;;;;;;;13.50;10.17;;;;;;;;;;5103980;28;20620;-81
2022/12/30 07:53:43;;;;;;;12.47;10.80;;;;;;;;;;5104690;28;20223;-79
2022/12/30 07:56:11;;;;;;;12.40;11.07;;;;;;;;;;5094541;28;20196;-80
2022/12/30 07:58:38;;;;;;;13.03;11.33;;;;;;;;;;5096768;28;20269;-79
2022/12/30 08:01:06;;;;;;;14.40;11.47;;;;;;;;;;5093568;28;20207;-79
2022/12/30 08:03:33;;;;;;;13.60;10.60;;;;;;;;;;5086308;28;20235;-80
2022/12/30 08:06:04;;;;;;;10.83;9.23;;;;;;;;;;5096587;28;20191;-79
2022/12/30 08:08:32;;;;;;;14.27;10.53;;;;;;;;;;5111648;28;20199;-79
2022/12/30 08:11:00;;;;;;;13.43;10.80;;;;;;;;;;5100393;28;20203;-79
2022/12/30 08:13:27;;;;;;;11.73;10.10;;;;;;;;;;5111157;28;20230;-79
2022/12/30 08:15:53;;;;;;;14.10;11.70;;;;;;;;;;5083784;28;20749;-79
2022/12/30 08:18:20;;;;;;;17.33;11.73;;;;;;;;;;5088827;28;20636;-80
2022/12/30 08:20:47;;;;;;;14.20;12.10;;;;;;;;;;5093128;28;20196;-79
2022/12/30 08:23:14;;;;;;;16.10;13.43;;;;;;;;;;5091375;28;20196;-79
2022/12/30 08:25:42;;;;;;;18.93;12.43;;;;;;;;;;5095266;28;20199;-79
2022/12/30 08:28:09;;;;;;;11.83;10.53;;;;;;;;;;5088237;28;20675;-80
2022/12/30 08:30:38;;;;;;;17.93;12.80;;;;;;;;;;5088986;28;20200;-79
2022/12/30 08:33:05;;;;;;;16.83;15.07;;;;;;;;;;5091095;28;20224;-80
2022/12/30 08:35:32;;;;;;;11.63;10.50;;;;;;;;;;5090192;28;20357;-79
2022/12/30 08:37:59;;;;;;;10.77;9.23;;;;;;;;;;5091731;28;20197;-79
2022/12/30 08:40:26;;;;;;;12.70;9.80;;;;;;;;;;5101840;28;20678;-78
2022/12/30 08:42:54;;;;;;;10.10;9.10;;;;;;;;;;5100920;28;20200;-77
2022/12/30 08:45:21;;;;;;;10.50;9.33;;;;;;;;;;5107556;28;20208;-78
2022/12/30 08:47:47;;;;;;;10.90;9.63;;;;;;;;;;5108773;28;20212;-78
2022/12/30 08:50:14;;;;;;;11.13;8.27;;;;;;;;;;5102000;28;20694;-78
2022/12/30 08:52:41;;;;;;;9.50;8.23;;;;;;;;;;5095412;28;20228;-78
2022/12/30 08:55:08;;;;;;;8.90;8.00;;;;;;;;;;5084316;28;20203;-78
2022/12/30 08:57:38;;;;;;;9.50;8.30;;;;;;;;;;5109350;28;20203;-78
2022/12/30 09:00:08;;;;;;;12.43;8.20;;;;;;;;;;5110639;28;20682;-79
2022/12/30 09:02:35;;;;;;;10.53;7.73;;;;;;;;;;5110331;28;20234;-81
2022/12/30 09:05:02;;;;;;;16.60;13.27;;;;;;;;;;5105557;28;20659;-78
2022/12/30 09:07:29;;;;;;;14.57;9.03;;;;;;;;;;5110421;28;20191;-77
2022/12/30 09:09:56;;;;;;;9.90;8.23;;;;;;;;;;5110213;28;20701;-78
2022/12/30 09:12:23;;;;;;;9.00;7.83;;;;;;;;;;5105559;28;20210;-77
2022/12/30 09:14:49;;;;;;;12.07;10.87;;;;;;;;;;5089838;28;20204;-78
2022/12/30 09:17:18;;;;;;;8.27;7.37;;;;;;;;;;5090381;28;20192;-78
2022/12/30 09:19:44;;;;;;;8.50;7.57;;;;;;;;;;5091327;28;20201;-78
2022/12/30 09:22:11;;;;;;;7.50;6.80;;;;;;;;;;5089744;28;20196;-78
2022/12/30 09:24:38;;;;;;;10.73;7.20;;;;;;;;;;5090225;28;20204;-78
2022/12/30 09:27:05;;;;;;;7.77;6.73;;;;;;;;;;5092250;28;20203;-78
2022/12/30 09:29:31;;;;;;;8.10;6.80;;;;;;;;;;5103050;28;20203;-77
2022/12/30 09:31:58;;;;;;;11.40;7.87;;;;;;;;;;5090308;28;20196;-77
2022/12/30 09:34:26;;;;;;;8.43;7.63;;;;;;;;;;5088842;28;20228;-82
2022/12/30 09:36:53;;;;;;;8.90;8.00;;;;;;;;;;5085417;28;20286;-82
2022/12/30 09:39:30;;;;;;;10.40;8.33;;;;;;;;;;5085172;28;20216;-78
2022/12/30 09:44:54;;;;;;;14.13;8.87;;;;;;;;;;5094550;28;20310;-77
2022/12/30 09:47:22;;;;;;;15.90;10.33;;;;;;;;;;5110383;28;20241;-78
2022/12/30 09:49:53;;;;;;;15.57;10.70;;;;;;;;;;5110299;28;20191;-78
2022/12/30 09:52:23;;;;;;;12.80;10.37;;;;;;;;;;5109312;28;20582;-77
2022/12/30 09:54:55;;;;;;;12.87;9.87;;;;;;;;;;5109234;28;20231;-78
2022/12/30 09:57:32;;;;;;;12.17;10.27;;;;;;;;;;5098590;28;20225;-78
2022/12/30 10:00:04;;;;;;;14.10;11.00;;;;;;;;;;5087393;28;20204;-78
2022/12/30 10:02:37;;;;;;;16.67;13.37;;;;;;;;;;5089461;28;20201;-77
2022/12/30 10:05:09;;;;;;;13.70;11.87;;;;;;;;;;5089547;28;20706;-77
2022/12/30 10:07:40;;;;;;;16.13;12.57;;;;;;;;;;5100693;28;20251;-82
2022/12/30 10:10:11;;;;;;;16.77;11.87;;;;;;;;;;5101532;28;20219;-78
2022/12/30 10:12:43;;;;;;;13.53;10.50;;;;;;;;;;5095438;28;20567;-77
2022/12/30 10:15:29;;;;;;;18.47;14.23;;;;;;;;;;5089438;28;20289;-77
2022/12/30 10:18:15;;;;;;;17.23;13.20;;;;;;;;;;5086756;28;20193;-77
2022/12/30 10:20:49;;;;;;;14.20;11.50;;;;;;;;;;5088588;28;20566;-78
2022/12/30 10:23:31;;;;;;;13.63;11.73;;;;;;;;;;5089497;28;20678;-78
2022/12/30 10:26:06;;;;;;;15.43;11.43;;;;;;;;;;5089113;28;20646;-78
2022/12/30 10:28:36;;;;;;;16.93;13.13;;;;;;;;;;5089099;28;20207;-78
2022/12/30 10:31:07;;;;;;;14.00;11.30;;;;;;;;;;5095078;28;20227;-77
2022/12/30 10:33:35;;;;;;;16.27;12.17;;;;;;;;;;5110159;28;20276;-77
2022/12/30 10:36:11;;;;;;;15.33;12.00;;;;;;;;;;5108741;28;20207;-79
2022/12/30 10:38:38;;;;;;;15.80;12.37;;;;;;;;;;5108529;28;20207;-81
2022/12/30 10:41:09;;;;;;;20.33;15.07;;;;;;;;;;5110628;28;20205;-78
2022/12/30 10:43:45;;;;;;;17.07;12.77;;;;;;;;;;5113880;28;20251;-77
2022/12/30 10:46:24;;;;;;;16.13;12.00;;;;;;;;;;5098186;28;20688;-77
2022/12/30 10:49:05;;;;;;;16.40;12.73;;;;;;;;;;5098049;28;20620;-77
2022/12/30 10:51:33;;;;;;;14.10;12.10;;;;;;;;;;5099101;28;20207;-78
2022/12/30 10:54:01;;;;;;;17.00;12.00;;;;;;;;;;5113576;28;20712;-78
2022/12/30 10:56:30;;;;;;;14.37;11.23;;;;;;;;;;5113041;28;20201;-78
2022/12/30 10:58:59;;;;;;;19.10;12.17;;;;;;;;;;5112668;28;20199;-77
2022/12/30 11:01:29;;;;;;;16.17;12.07;;;;;;;;;;5113265;28;20678;-78
2022/12/30 11:03:58;;;;;;;16.30;11.93;;;;;;;;;;5112260;28;20244;-77
2022/12/30 11:06:27;;;;;;;14.47;11.73;;;;;;;;;;5113179;28;20202;-78
2022/12/30 11:09:17;;;;;;;12.37;10.57;;;;;;;;;;5109197;28;20614;-78
2022/12/30 11:14:45;;;;;;;22.07;19.33;;;;;;;;;;5081034;28;20732;-78
2022/12/30 11:17:21;;;;;;;15.47;13.23;;;;;;;;;;5092338;28;20196;-78
2022/12/30 11:19:50;;;;;;;14.97;12.63;;;;;;;;;;5092667;28;20207;-78
2022/12/30 11:22:17;;;;;;;18.83;13.80;;;;;;;;;;5092335;28;20205;-78
2022/12/30 11:24:47;;;;;;;15.03;12.87;;;;;;;;;;5091410;28;20214;-78
2022/12/30 11:27:14;;;;;;;16.43;14.10;;;;;;;;;;5092364;28;20280;-77
2022/12/30 11:29:41;;;;;;;18.23;15.13;;;;;;;;;;5101292;28;20598;-79
2022/12/30 11:32:11;;;;;;;21.83;15.60;;;;;;;;;;5112622;28;20278;-77
2022/12/30 11:34:39;;;;;;;19.67;14.93;;;;;;;;;;5112553;28;20238;-78
2022/12/30 11:37:23;;;;;;;18.00;14.40;;;;;;;;;;5112710;28;20210;-79
2022/12/30 11:39:52;;;;;;;25.43;19.77;;;;;;;;;;5112668;28;20203;-78
2022/12/30 11:42:30;;;;;;;26.40;19.40;;;;;;;;;;5112054;28;20207;-78
2022/12/30 11:45:21;;;;;;;24.90;17.90;;;;;;;;;;5111489;28;20660;-79
2022/12/30 11:47:48;;;;;;;18.50;15.07;;;;;;;;;;5087495;28;20747;-78
2022/12/30 11:50:17;;;;;;;20.13;16.57;;;;;;;;;;5101956;28;20200;-79
2022/12/30 11:52:49;;;;;;;17.83;14.40;;;;;;;;;;5104384;28;20283;-79
2022/12/30 11:55:24;;;;;;;20.37;14.90;;;;;;;;;;5112135;28;20257;-78
2022/12/30 11:57:51;;;;;;;17.70;14.23;;;;;;;;;;5112511;28;20206;-80
2022/12/30 12:00:28;;;;;;;21.07;16.17;;;;;;;;;;5105258;28;20203;-78
2022/12/30 12:03:01;;;;;;;23.80;16.47;;;;;;;;;;5112133;28;20260;-78
2022/12/30 12:05:30;;;;;;;20.00;15.30;;;;;;;;;;5112086;28;20222;-77
2022/12/30 12:07:59;;;;;;;22.50;16.10;;;;;;;;;;5112016;28;20204;-78
2022/12/30 12:10:31;;;;;;;19.80;17.10;;;;;;;;;;5112260;28;20199;-78
2022/12/30 12:13:01;;;;;;;18.67;15.87;;;;;;;;;;5111795;28;20208;-78
2022/12/30 12:15:32;;;;;;;21.50;17.93;;;;;;;;;;5111706;28;20227;-78
2022/12/30 12:18:00;;;;;;;34.17;21.67;;;;;;;;;;5111607;28;20207;-78
2022/12/30 12:20:32;;;;;;;24.37;19.87;;;;;;;;;;5097178;28;20195;-79
2022/12/30 12:23:06;;;;;;;19.93;17.10;;;;;;;;;;5112052;28;20199;-78
2022/12/30 12:25:37;;;;;;;20.03;16.83;;;;;;;;;;5078758;28;20206;-78
2022/12/30 12:28:05;;;;;;;20.73;16.00;;;;;;;;;;5091396;28;20213;-78
2022/12/30 12:30:44;;;;;;;19.00;15.30;;;;;;;;;;5099478;28;20198;-78
2022/12/30 12:33:20;;;;;;;22.23;17.23;;;;;;;;;;5094269;28;20202;-78
2022/12/30 12:35:49;;;;;;;24.87;16.73;;;;;;;;;;5090918;28;20677;-78
2022/12/30 12:38:31;;;;;;;20.23;15.30;;;;;;;;;;5091144;28;20283;-78
2022/12/30 12:41:10;;;;;;;23.47;15.80;;;;;;;;;;5091141;28;20202;-78
2022/12/30 12:43:49;;;;;;;22.43;18.37;;;;;;;;;;5091403;28;20203;-78
2022/12/30 12:46:27;;;;;;;27.77;17.90;;;;;;;;;;5090616;28;20197;-78
2022/12/30 12:49:15;;;;;;;19.93;16.40;;;;;;;;;;5091005;28;20209;-78
2022/12/30 12:51:52;;;;;;;24.23;19.83;;;;;;;;;;5100071;28;20268;-78
2022/12/30 12:54:37;;;;;;;20.47;15.93;;;;;;;;;;5111133;28;20215;-78
2022/12/30 12:57:12;;;;;;;39.73;23.53;;;;;;;;;;5110846;28;20263;-78
2022/12/30 12:59:58;;;;;;;28.83;20.30;;;;;;;;;;5110937;28;20205;-78
2022/12/30 13:02:58;;;;;;;24.40;17.67;;;;;;;;;;5111489;28;20210;-78
2022/12/30 13:05:29;;;;;;;53.57;37.30;;;;;;;;;;5088713;28;20233;-78
2022/12/30 13:08:01;;;;;;;57.70;37.27;;;;;;;;;;5110691;28;20685;-78
2022/12/30 13:10:35;;;;;;;32.40;24.97;;;;;;;;;;5111013;28;20211;-78
2022/12/30 13:13:07;;;;;;;26.30;19.23;;;;;;;;;;5110835;28;20285;-78
2022/12/30 13:15:37;;;;;;;24.87;19.47;;;;;;;;;;5110423;28;20225;-78
2022/12/30 13:18:09;;;;;;;28.77;19.57;;;;;;;;;;5111250;28;20418;-78
2022/12/30 13:20:45;;;;;;;20.87;15.93;;;;;;;;;;5110793;28;20199;-78
2022/12/30 13:23:13;;;;;;;21.73;16.77;;;;;;;;;;5111087;28;20260;-78
2022/12/30 13:25:43;;;;;;;21.70;17.07;;;;;;;;;;5110982;28;20195;-78
2022/12/30 13:28:19;;;;;;;38.53;22.10;;;;;;;;;;5110846;28;20715;-78
2022/12/30 13:30:57;;;;;;;30.83;20.43;;;;;;;;;;5110683;28;20222;-79
2022/12/30 13:33:29;;;;;;;22.60;17.47;;;;;;;;;;5110206;28;20197;-78
2022/12/30 13:36:00;;;;;;;36.03;22.83;;;;;;;;;;5110313;28;20225;-78
2022/12/30 13:38:44;;;;;;;31.03;23.40;;;;;;;;;;5077473;28;20198;-78
2022/12/30 13:41:36;;;;;;;58.50;38.23;;;;;;;;;;5090611;28;20204;-78
2022/12/30 13:44:05;;;;;;;46.70;28.87;;;;;;;;;;5090320;28;20207;-78
2022/12/30 13:46:33;;;;;;;34.60;23.40;;;;;;;;;;5089851;28;20739;-78
2022/12/30 13:49:02;;;;;;;29.40;20.47;;;;;;;;;;5089635;28;20689;-79
2022/12/30 13:51:30;;;;;;;29.77;21.23;;;;;;;;;;5090080;28;20199;-78
2022/12/30 13:53:58;;;;;;;42.90;26.13;;;;;;;;;;5090438;28;20211;-79
2022/12/30 13:56:34;;;;;;;72.00;40.30;;;;;;;;;;5089782;28;20208;-78
2022/12/30 13:59:01;;;;;;;54.40;29.93;;;;;;;;;;5090285;28;20665;-78
2022/12/30 14:01:35;;;;;;;41.13;24.87;;;;;;;;;;5094591;28;20777;-81
2022/12/30 14:04:30;;;;;;;30.23;21.80;;;;;;;;;;5087597;28;20315;-78
2022/12/30 14:06:57;;;;;;;34.40;25.27;;;;;;;;;;5097201;28;20195;-78
2022/12/30 14:09:25;;;;;;;74.63;43.27;;;;;;;;;;5102463;28;20212;-79
2022/12/30 14:12:31;;;;;;;63.90;41.37;;;;;;;;;;5110018;28;20574;-79
2022/12/30 14:15:01;;;;;;;40.53;30.57;;;;;;;;;;5110131;28;20246;-79
2022/12/30 14:17:32;;;;;;;33.93;24.60;;;;;;;;;;5114232;28;20739;-78
2022/12/30 14:20:00;;;;;;;27.03;19.87;;;;;;;;;;5113040;28;20208;-79
2022/12/30 14:22:59;;;;;;;35.17;24.60;;;;;;;;;;5114414;28;20211;-78
2022/12/30 14:25:32;;;;;;;45.20;28.30;;;;;;;;;;5083451;28;20204;-79
2022/12/30 14:28:14;;;;;;;48.80;28.80;;;;;;;;;;5094022;28;20217;-79
2022/12/30 14:30:42;;;;;;;116.60;56.57;;;;;;;;;;5093401;28;20614;-79
2022/12/30 14:33:20;;;;;;;87.57;44.27;;;;;;;;;;5093988;28;20205;-78
2022/12/30 14:35:59;;;;;;;114.53;66.97;;;;;;;;;;5092991;28;20256;-79
2022/12/30 14:38:37;;;;;;;117.07;65.13;;;;;;;;;;5093469;28;20290;-79
2022/12/30 14:41:07;;;;;;;149.17;81.80;;;;;;;;;;5093301;28;20204;-79
2022/12/30 14:43:37;;;;;;;109.93;63.23;;;;;;;;;;5093833;28;20249;-79
2022/12/30 14:46:56;;;;;;;56.17;36.67;;;;;;;;;;5093071;28;20619;-80
2022/12/30 14:49:28;;;;;;;61.70;42.20;;;;;;;;;;5093483;28;20208;-81
2022/12/30 14:52:00;;;;;;;37.13;26.97;;;;;;;;;;5092534;28;20624;-79
2022/12/30 14:54:33;;;;;;;49.03;30.07;;;;;;;;;;5093633;28;20223;-79
2022/12/30 14:57:06;;;;;;;32.73;23.90;;;;;;;;;;5093214;28;20201;-79
2022/12/30 14:59:45;;;;;;;27.80;21.30;;;;;;;;;;5093113;28;20666;-79
2022/12/30 15:02:14;;;;;;;26.83;19.80;;;;;;;;;;5092749;28;20196;-79
2022/12/30 15:04:42;;;;;;;38.90;27.00;;;;;;;;;;5093047;28;20289;-79
2022/12/30 15:07:09;;;;;;;27.97;20.97;;;;;;;;;;5092355;28;20200;-79
2022/12/30 15:09:37;;;;;;;26.60;19.87;;;;;;;;;;5093038;28;20567;-80
2022/12/30 15:12:06;;;;;;;21.97;16.17;;;;;;;;;;5106228;28;20203;-79
2022/12/30 15:14:32;;;;;;;23.97;18.40;;;;;;;;;;5103107;28;20283;-79
2022/12/30 15:17:23;;;;;;;20.50;16.03;;;;;;;;;;5109470;28;20212;-79
2022/12/30 15:19:52;;;;;;;29.40;19.57;;;;;;;;;;5089563;28;20269;-80
2022/12/30 15:22:23;;;;;;;32.50;23.73;;;;;;;;;;5095803;28;20252;-79
2022/12/30 15:24:50;;;;;;;49.47;35.43;;;;;;;;;;5094966;28;20204;-80
2022/12/30 15:27:20;;;;;;;36.90;26.27;;;;;;;;;;5091869;28;20200;-79
2022/12/30 15:29:47;;;;;;;30.77;22.17;;;;;;;;;;5106368;28;20203;-80
2022/12/30 15:32:24;;;;;;;23.93;18.37;;;;;;;;;;5101508;28;20211;-79
2022/12/30 15:34:52;;;;;;;27.50;19.83;;;;;;;;;;5112318;28;20659;-79
2022/12/30 15:37:22;;;;;;;25.47;18.50;;;;;;;;;;5108681;28;20207;-80
2022/12/30 15:39:52;;;;;;;26.37;20.00;;;;;;;;;;5091276;28;20200;-79
2022/12/30 15:42:22;;;;;;;28.80;22.80;;;;;;;;;;5112891;28;20199;-80